Time;durP1;ratioP1;P1;durP2;ratioP2;P2;SDS_P1;SDS_P2;PMS_P1;PMS_P2;Temp;Humidity;BMP_temperature;BMP_pressure;BME280_temperature;BME280_humidity;BME280_pressure;Samples;Min_cycle;Max_cycle;Signal;HPM_P1;HPM_P2
2023/06/27 00:00:13;;;;;;;5.30;1.83;;;;;;;;;;5033967;28;20535;-78
2023/06/27 00:02:40;;;;;;;3.90;2.00;;;;;;;;;;5018726;28;20268;-78
2023/06/27 00:05:07;;;;;;;5.77;2.00;;;;;;;;;;5051907;28;20613;-78
2023/06/27 00:07:33;;;;;;;3.50;2.00;;;;;;;;;;5033224;28;20182;-80
2023/06/27 00:10:00;;;;;;;4.17;1.70;;;;;;;;;;5028719;28;20188;-80
2023/06/27 00:12:26;;;;;;;2.47;1.70;;;;;;;;;;5051161;28;20178;-78
2023/06/27 00:14:54;;;;;;;4.80;1.70;;;;;;;;;;5034808;28;20201;-78
2023/06/27 00:17:23;;;;;;;5.10;1.80;;;;;;;;;;5052141;28;20186;-78
2023/06/27 00:19:49;;;;;;;2.40;1.80;;;;;;;;;;5034949;28;20569;-78
2023/06/27 00:22:15;;;;;;;3.93;1.70;;;;;;;;;;5030453;28;20181;-78
2023/06/27 00:24:42;;;;;;;3.67;1.80;;;;;;;;;;5050875;28;20807;-78
2023/06/27 00:27:08;;;;;;;6.73;2.10;;;;;;;;;;5034156;28;20530;-77
2023/06/27 00:29:34;;;;;;;2.27;1.80;;;;;;;;;;5034857;28;20231;-78
2023/06/27 00:32:00;;;;;;;3.00;1.73;;;;;;;;;;5027273;28;20174;-78
2023/06/27 00:34:27;;;;;;;5.10;1.83;;;;;;;;;;5052213;28;20659;-78
2023/06/27 00:36:53;;;;;;;3.07;1.60;;;;;;;;;;5014628;28;20935;-77
2023/06/27 00:39:19;;;;;;;4.70;1.83;;;;;;;;;;5017393;28;20551;-78
2023/06/27 00:41:45;;;;;;;2.53;1.60;;;;;;;;;;5033617;28;20526;-77
2023/06/27 00:44:12;;;;;;;2.50;1.50;;;;;;;;;;5051953;28;20205;-78
2023/06/27 00:46:40;;;;;;;2.40;1.70;;;;;;;;;;5017131;28;20586;-78
2023/06/27 00:49:08;;;;;;;4.23;2.00;;;;;;;;;;5017477;28;20364;-80
2023/06/27 00:51:34;;;;;;;1.93;1.40;;;;;;;;;;5013980;28;21630;-78
2023/06/27 00:54:00;;;;;;;3.67;1.70;;;;;;;;;;5017778;28;20181;-79
2023/06/27 00:56:27;;;;;;;4.90;2.20;;;;;;;;;;5017505;28;20198;-78
2023/06/27 00:59:00;;;;;;;3.37;1.80;;;;;;;;;;5038730;28;20213;-78
2023/06/27 01:01:29;;;;;;;4.33;1.80;;;;;;;;;;5031950;28;20209;-78
2023/06/27 01:03:56;;;;;;;3.87;2.10;;;;;;;;;;5018225;28;20512;-78
2023/06/27 01:06:26;;;;;;;2.27;1.70;;;;;;;;;;5033697;28;20221;-78
2023/06/27 01:09:04;;;;;;;2.60;1.77;;;;;;;;;;5052412;28;20185;-78
2023/06/27 01:11:34;;;;;;;2.23;1.60;;;;;;;;;;5033705;28;20185;-78
2023/06/27 01:14:01;;;;;;;3.20;1.70;;;;;;;;;;5033812;28;20170;-78
2023/06/27 01:16:31;;;;;;;4.27;1.80;;;;;;;;;;5033711;28;20234;-78
2023/06/27 01:18:58;;;;;;;2.57;1.83;;;;;;;;;;5033221;28;20204;-78
2023/06/27 01:21:25;;;;;;;4.33;1.80;;;;;;;;;;5029293;28;20185;-79
2023/06/27 01:23:58;;;;;;;2.90;1.70;;;;;;;;;;5032798;28;20184;-78
2023/06/27 01:26:24;;;;;;;2.57;1.53;;;;;;;;;;4999753;28;20206;-80
2023/06/27 01:28:51;;;;;;;4.50;2.07;;;;;;;;;;5050007;28;20593;-79
2023/06/27 01:31:28;;;;;;;5.63;1.80;;;;;;;;;;5016002;28;20185;-78
2023/06/27 01:33:57;;;;;;;2.70;1.87;;;;;;;;;;5000776;28;20809;-81
2023/06/27 01:36:24;;;;;;;3.90;1.70;;;;;;;;;;5050083;28;20193;-79
2023/06/27 01:39:05;;;;;;;3.07;1.90;;;;;;;;;;5033242;28;20205;-78
2023/06/27 01:41:33;;;;;;;3.27;1.80;;;;;;;;;;5047863;28;20741;-80
2023/06/27 01:44:02;;;;;;;2.43;1.70;;;;;;;;;;5032445;28;20213;-79
2023/06/27 01:46:28;;;;;;;2.17;1.73;;;;;;;;;;5045800;28;20750;-78
2023/06/27 01:48:55;;;;;;;4.13;1.70;;;;;;;;;;5050252;28;20166;-81
2023/06/27 01:51:21;;;;;;;4.33;1.70;;;;;;;;;;5050042;28;20200;-79
2023/06/27 01:53:47;;;;;;;3.87;1.70;;;;;;;;;;5032490;28;20588;-79
2023/06/27 01:56:15;;;;;;;3.67;1.87;;;;;;;;;;5015651;28;20189;-80
2023/06/27 01:58:41;;;;;;;1.87;1.60;;;;;;;;;;5032590;28;20205;-79
2023/06/27 02:01:08;;;;;;;2.23;1.93;;;;;;;;;;5018577;28;20202;-79
2023/06/27 02:03:35;;;;;;;2.70;1.70;;;;;;;;;;5031468;28;20193;-79
2023/06/27 02:06:03;;;;;;;4.10;1.70;;;;;;;;;;5014282;28;20378;-80
2023/06/27 02:08:29;;;;;;;3.47;1.90;;;;;;;;;;5032474;28;20166;-80
2023/06/27 02:10:55;;;;;;;2.30;1.60;;;;;;;;;;5013938;28;20189;-81
2023/06/27 02:13:22;;;;;;;2.53;1.87;;;;;;;;;;5048883;28;20182;-81
2023/06/27 02:15:48;;;;;;;2.30;1.70;;;;;;;;;;5013809;28;20293;-79
2023/06/27 02:18:14;;;;;;;2.50;1.70;;;;;;;;;;5013400;28;20201;-78
2023/06/27 02:20:40;;;;;;;2.67;1.63;;;;;;;;;;5031727;28;20177;-78
2023/06/27 02:23:06;;;;;;;2.87;1.90;;;;;;;;;;5032217;28;20177;-78
2023/06/27 02:25:32;;;;;;;4.27;2.00;;;;;;;;;;5016015;28;20273;-79
2023/06/27 02:27:59;;;;;;;5.03;2.07;;;;;;;;;;5014226;28;20189;-78
2023/06/27 02:30:25;;;;;;;3.10;1.80;;;;;;;;;;5037936;28;20771;-78
2023/06/27 02:32:51;;;;;;;5.77;2.10;;;;;;;;;;5050283;28;20649;-78
2023/06/27 02:35:17;;;;;;;3.63;1.93;;;;;;;;;;5050215;28;20202;-78
2023/06/27 02:37:43;;;;;;;2.57;1.80;;;;;;;;;;5015114;28;21959;-78
2023/06/27 02:40:10;;;;;;;2.27;1.70;;;;;;;;;;5050433;28;20178;-78
2023/06/27 02:42:37;;;;;;;4.07;1.83;;;;;;;;;;5015773;28;20585;-78
2023/06/27 02:45:03;;;;;;;3.03;1.70;;;;;;;;;;5032451;28;20558;-78
2023/06/27 02:47:31;;;;;;;1.90;1.70;;;;;;;;;;5049666;28;20565;-78
2023/06/27 02:49:57;;;;;;;2.97;1.70;;;;;;;;;;5050758;28;20672;-78
2023/06/27 02:52:23;;;;;;;3.00;1.90;;;;;;;;;;5016348;28;20178;-78
2023/06/27 02:54:49;;;;;;;3.07;1.90;;;;;;;;;;5050222;28;20210;-78
2023/06/27 02:57:17;;;;;;;2.53;1.77;;;;;;;;;;5031957;28;20178;-80
2023/06/27 02:59:45;;;;;;;3.40;1.90;;;;;;;;;;5019095;28;20693;-78
2023/06/27 03:02:12;;;;;;;4.00;1.80;;;;;;;;;;5032719;28;20182;-78
2023/06/27 03:04:38;;;;;;;2.77;1.87;;;;;;;;;;5021017;28;20363;-78
2023/06/27 03:07:05;;;;;;;3.47;1.83;;;;;;;;;;5015179;28;20205;-78
2023/06/27 03:09:32;;;;;;;3.67;1.90;;;;;;;;;;5015959;28;20193;-78
2023/06/27 03:11:59;;;;;;;4.60;1.90;;;;;;;;;;5031947;28;20603;-78
2023/06/27 03:14:27;;;;;;;1.80;1.60;;;;;;;;;;5032852;28;20198;-78
2023/06/27 03:16:55;;;;;;;3.97;1.83;;;;;;;;;;5019273;28;20205;-80
2023/06/27 03:19:22;;;;;;;3.77;1.60;;;;;;;;;;5035160;28;20181;-78
2023/06/27 03:21:48;;;;;;;3.70;1.63;;;;;;;;;;5034939;28;20550;-78
2023/06/27 03:24:14;;;;;;;2.97;1.80;;;;;;;;;;5034491;28;20193;-78
2023/06/27 03:26:45;;;;;;;4.20;1.60;;;;;;;;;;5001600;28;20241;-78
2023/06/27 03:29:12;;;;;;;3.30;1.70;;;;;;;;;;5035534;28;20209;-80
2023/06/27 03:31:38;;;;;;;2.53;1.80;;;;;;;;;;5018292;28;20562;-79
2023/06/27 03:34:05;;;;;;;2.17;1.63;;;;;;;;;;5032607;28;20181;-78
2023/06/27 03:36:35;;;;;;;2.97;1.97;;;;;;;;;;5032624;28;20797;-78
2023/06/27 03:39:04;;;;;;;2.87;1.87;;;;;;;;;;5023428;28;20190;-81
2023/06/27 03:41:30;;;;;;;1.93;1.80;;;;;;;;;;5015982;28;20186;-78
2023/06/27 03:43:56;;;;;;;4.03;1.80;;;;;;;;;;5033936;28;20645;-80
2023/06/27 03:46:24;;;;;;;2.63;1.73;;;;;;;;;;5033769;28;20339;-79
2023/06/27 03:48:54;;;;;;;1.80;1.50;;;;;;;;;;5033696;28;20260;-78
2023/06/27 03:51:20;;;;;;;1.97;1.67;;;;;;;;;;5012250;28;20582;-79
2023/06/27 03:53:46;;;;;;;2.17;1.70;;;;;;;;;;5051313;28;20669;-79
2023/06/27 03:56:12;;;;;;;3.03;2.00;;;;;;;;;;5033918;28;20224;-78
2023/06/27 03:58:38;;;;;;;4.50;2.07;;;;;;;;;;5034167;28;20185;-78
2023/06/27 04:01:04;;;;;;;2.40;1.80;;;;;;;;;;5032211;28;20193;-78
2023/06/27 04:03:30;;;;;;;2.53;1.87;;;;;;;;;;5034341;28;20192;-78
2023/06/27 04:05:57;;;;;;;2.63;1.80;;;;;;;;;;5045577;28;20838;-78
2023/06/27 04:08:24;;;;;;;2.53;1.80;;;;;;;;;;5017323;28;20185;-78
2023/06/27 04:10:50;;;;;;;3.97;1.87;;;;;;;;;;5034483;28;22148;-78
2023/06/27 04:13:19;;;;;;;2.00;1.70;;;;;;;;;;5032455;28;20197;-78
2023/06/27 04:15:45;;;;;;;2.57;1.90;;;;;;;;;;5030583;28;20677;-78
2023/06/27 04:18:13;;;;;;;3.80;1.80;;;;;;;;;;5015291;28;20853;-78
2023/06/27 04:20:39;;;;;;;3.03;1.80;;;;;;;;;;5034083;28;20239;-78
2023/06/27 04:23:05;;;;;;;2.40;1.80;;;;;;;;;;5033926;28;20186;-79
2023/06/27 04:25:33;;;;;;;2.87;1.80;;;;;;;;;;4999408;28;20217;-79
2023/06/27 04:28:01;;;;;;;2.10;1.87;;;;;;;;;;5001300;28;20189;-78
2023/06/27 04:30:29;;;;;;;1.97;1.57;;;;;;;;;;5034952;28;20182;-78
2023/06/27 04:32:55;;;;;;;2.50;1.93;;;;;;;;;;5018007;28;20188;-78
2023/06/27 04:35:21;;;;;;;3.03;1.90;;;;;;;;;;5034568;28;20202;-79
2023/06/27 04:37:47;;;;;;;4.60;2.00;;;;;;;;;;5051124;28;20833;-78
2023/06/27 04:40:13;;;;;;;4.33;2.30;;;;;;;;;;5052467;28;20178;-78
2023/06/27 04:42:40;;;;;;;3.50;2.33;;;;;;;;;;5001872;28;20185;-78
2023/06/27 04:45:06;;;;;;;5.93;2.30;;;;;;;;;;5052124;28;20218;-79
2023/06/27 04:47:35;;;;;;;5.13;2.10;;;;;;;;;;5016001;28;20204;-79
2023/06/27 04:50:02;;;;;;;8.77;2.73;;;;;;;;;;5018100;28;20276;-78
2023/06/27 04:52:28;;;;;;;4.23;2.30;;;;;;;;;;5018083;28;20196;-78
2023/06/27 04:54:54;;;;;;;5.37;2.20;;;;;;;;;;5049679;28;20535;-78
2023/06/27 04:57:20;;;;;;;3.60;2.03;;;;;;;;;;5051528;28;20201;-80
2023/06/27 04:59:47;;;;;;;6.17;2.30;;;;;;;;;;5032865;28;20190;-78
2023/06/27 05:02:13;;;;;;;3.50;2.00;;;;;;;;;;5051013;28;20174;-79
2023/06/27 05:04:39;;;;;;;3.03;1.93;;;;;;;;;;5033302;28;20205;-78
2023/06/27 05:07:06;;;;;;;4.30;2.13;;;;;;;;;;5015620;28;20265;-78
2023/06/27 05:09:32;;;;;;;4.30;2.30;;;;;;;;;;5050272;28;20182;-78
2023/06/27 05:11:58;;;;;;;5.17;2.20;;;;;;;;;;5014190;28;20171;-78
2023/06/27 05:14:24;;;;;;;5.07;2.70;;;;;;;;;;5025102;28;20237;-78
2023/06/27 05:16:50;;;;;;;2.33;1.87;;;;;;;;;;5051196;28;20180;-78
2023/06/27 05:19:16;;;;;;;3.57;2.03;;;;;;;;;;5049945;28;20178;-78
2023/06/27 05:21:43;;;;;;;2.63;1.90;;;;;;;;;;5050334;28;20269;-78
2023/06/27 05:24:09;;;;;;;2.13;1.70;;;;;;;;;;5049073;28;20173;-81
2023/06/27 05:26:35;;;;;;;5.43;2.97;;;;;;;;;;5047941;28;20206;-80
2023/06/27 05:29:02;;;;;;;3.30;2.37;;;;;;;;;;5033530;28;20181;-79
2023/06/27 05:31:28;;;;;;;3.73;2.17;;;;;;;;;;5050830;28;20219;-79
2023/06/27 05:33:55;;;;;;;5.50;2.40;;;;;;;;;;5051449;28;20514;-78
2023/06/27 05:36:21;;;;;;;3.57;2.50;;;;;;;;;;5033038;28;20182;-78
2023/06/27 05:38:48;;;;;;;4.07;2.53;;;;;;;;;;5047721;28;20425;-78
2023/06/27 05:41:17;;;;;;;3.87;2.50;;;;;;;;;;5032008;28;20628;-78
2023/06/27 05:43:44;;;;;;;4.93;2.23;;;;;;;;;;5033154;28;20189;-78
2023/06/27 05:46:10;;;;;;;3.47;2.30;;;;;;;;;;5051411;28;20278;-78
2023/06/27 05:48:37;;;;;;;3.23;2.07;;;;;;;;;;5030819;28;20239;-78
2023/06/27 05:51:03;;;;;;;3.03;1.80;;;;;;;;;;5032036;28;20185;-78
2023/06/27 05:53:29;;;;;;;5.70;2.30;;;;;;;;;;5028012;28;20188;-77
2023/06/27 05:55:55;;;;;;;3.37;1.73;;;;;;;;;;5033042;28;20586;-75
2023/06/27 05:58:22;;;;;;;4.23;2.07;;;;;;;;;;5046346;28;20665;-76
2023/06/27 06:00:48;;;;;;;3.30;2.17;;;;;;;;;;5045766;28;20178;-76
2023/06/27 06:03:14;;;;;;;3.37;1.97;;;;;;;;;;5045938;28;20178;-74
2023/06/27 06:05:40;;;;;;;4.43;1.93;;;;;;;;;;5035651;28;20212;-74
2023/06/27 06:08:06;;;;;;;3.30;2.10;;;;;;;;;;5049175;28;20170;-74
2023/06/27 06:10:32;;;;;;;2.97;2.20;;;;;;;;;;5027901;28;20190;-74
2023/06/27 06:12:58;;;;;;;2.73;1.80;;;;;;;;;;5032709;28;20281;-75
2023/06/27 06:15:25;;;;;;;4.57;2.07;;;;;;;;;;5049089;28;20201;-73
2023/06/27 06:17:51;;;;;;;3.47;1.90;;;;;;;;;;5030463;28;20829;-73
2023/06/27 06:20:17;;;;;;;2.97;2.00;;;;;;;;;;5015523;28;20201;-73
2023/06/27 06:22:43;;;;;;;5.27;1.80;;;;;;;;;;5037726;28;20185;-73
2023/06/27 06:25:09;;;;;;;1.83;1.67;;;;;;;;;;5053885;28;20617;-73
2023/06/27 06:27:35;;;;;;;3.87;1.73;;;;;;;;;;5050784;28;20185;-73
2023/06/27 06:30:01;;;;;;;4.77;1.70;;;;;;;;;;5049850;28;20178;-72
2023/06/27 06:32:28;;;;;;;2.73;1.70;;;;;;;;;;5046991;28;20284;-73
2023/06/27 06:34:54;;;;;;;4.43;2.13;;;;;;;;;;5055954;28;20202;-73
2023/06/27 06:37:20;;;;;;;3.47;1.93;;;;;;;;;;5059922;28;20937;-74
2023/06/27 06:39:46;;;;;;;4.03;2.03;;;;;;;;;;5047488;28;20193;-72
2023/06/27 06:42:12;;;;;;;3.10;1.77;;;;;;;;;;5047728;28;20182;-72
2023/06/27 06:44:38;;;;;;;6.20;2.03;;;;;;;;;;5047169;28;20201;-73
2023/06/27 06:47:05;;;;;;;2.17;1.80;;;;;;;;;;5036299;28;20182;-72
2023/06/27 06:49:31;;;;;;;3.43;2.00;;;;;;;;;;5042077;28;20192;-73
2023/06/27 06:51:57;;;;;;;3.57;2.30;;;;;;;;;;5027560;28;20182;-73
2023/06/27 06:54:23;;;;;;;3.50;1.93;;;;;;;;;;5047290;28;20692;-72
2023/06/27 06:56:49;;;;;;;4.47;2.03;;;;;;;;;;5029063;28;20567;-73
2023/06/27 06:59:16;;;;;;;6.83;2.10;;;;;;;;;;5035653;28;20567;-72
2023/06/27 07:01:42;;;;;;;4.10;1.90;;;;;;;;;;5052832;28;20273;-72
2023/06/27 07:04:08;;;;;;;2.60;1.83;;;;;;;;;;5052727;28;20806;-73
2023/06/27 07:06:35;;;;;;;4.70;2.03;;;;;;;;;;5052362;28;20224;-72
2023/06/27 07:09:01;;;;;;;4.13;2.07;;;;;;;;;;5053029;28;20186;-73
2023/06/27 07:11:27;;;;;;;4.20;2.00;;;;;;;;;;5053708;28;20220;-73
2023/06/27 07:13:53;;;;;;;4.60;2.13;;;;;;;;;;5034898;28;20260;-73
2023/06/27 07:16:20;;;;;;;2.73;1.67;;;;;;;;;;5048544;28;20182;-73
2023/06/27 07:18:46;;;;;;;2.80;1.77;;;;;;;;;;5052733;28;20645;-73
2023/06/27 07:21:12;;;;;;;4.33;2.03;;;;;;;;;;5053294;28;20276;-73
2023/06/27 07:23:38;;;;;;;4.83;2.20;;;;;;;;;;5035329;28;20653;-72
2023/06/27 07:26:04;;;;;;;3.03;2.20;;;;;;;;;;5051583;28;20664;-72
2023/06/27 07:28:30;;;;;;;2.60;1.60;;;;;;;;;;5038970;28;20182;-73
2023/06/27 07:30:57;;;;;;;4.13;1.80;;;;;;;;;;5051544;28;20192;-73
2023/06/27 07:33:23;;;;;;;4.27;2.07;;;;;;;;;;5018685;28;20257;-73
2023/06/27 07:35:50;;;;;;;5.60;1.70;;;;;;;;;;5051865;28;20611;-73
2023/06/27 07:38:16;;;;;;;2.87;1.60;;;;;;;;;;5051581;28;20552;-74
2023/06/27 07:40:43;;;;;;;2.93;1.60;;;;;;;;;;5051519;28;20196;-73
2023/06/27 07:43:09;;;;;;;4.23;2.10;;;;;;;;;;5036770;28;20291;-73
2023/06/27 07:45:35;;;;;;;2.90;1.77;;;;;;;;;;5051850;28;20300;-73
2023/06/27 07:48:01;;;;;;;2.60;1.63;;;;;;;;;;5051771;28;20170;-73
2023/06/27 07:50:27;;;;;;;2.00;1.67;;;;;;;;;;5033104;28;20190;-73
2023/06/27 07:52:53;;;;;;;2.93;1.60;;;;;;;;;;5048533;28;20189;-72
2023/06/27 07:55:19;;;;;;;2.30;1.60;;;;;;;;;;5016482;28;20720;-73
2023/06/27 07:57:45;;;;;;;4.50;1.83;;;;;;;;;;5036913;28;20675;-73
2023/06/27 08:00:12;;;;;;;3.73;1.73;;;;;;;;;;5050042;28;20189;-72
2023/06/27 08:02:39;;;;;;;4.63;1.60;;;;;;;;;;5033100;28;20208;-72
2023/06/27 08:05:06;;;;;;;2.70;1.53;;;;;;;;;;5057126;28;20228;-73
2023/06/27 08:07:32;;;;;;;3.33;1.77;;;;;;;;;;5052983;28;20236;-73
2023/06/27 08:09:58;;;;;;;1.77;1.40;;;;;;;;;;5051473;28;20728;-72
2023/06/27 08:12:25;;;;;;;2.87;1.50;;;;;;;;;;5070182;28;20177;-73
2023/06/27 08:14:51;;;;;;;2.57;1.50;;;;;;;;;;5058499;28;20252;-73
2023/06/27 08:17:17;;;;;;;2.77;1.60;;;;;;;;;;5049129;28;20178;-73
2023/06/27 08:19:43;;;;;;;2.60;1.67;;;;;;;;;;5046829;28;20186;-73
2023/06/27 08:22:09;;;;;;;2.00;1.50;;;;;;;;;;5048650;28;20177;-73
2023/06/27 08:24:37;;;;;;;3.17;1.97;;;;;;;;;;5046739;28;20674;-73
2023/06/27 08:27:03;;;;;;;3.50;1.80;;;;;;;;;;5056502;28;20186;-73
2023/06/27 08:29:29;;;;;;;3.40;1.80;;;;;;;;;;5049491;28;20634;-73
2023/06/27 08:31:58;;;;;;;2.57;1.57;;;;;;;;;;5048667;28;20717;-72
2023/06/27 08:34:25;;;;;;;3.43;1.90;;;;;;;;;;5047937;28;20209;-72
2023/06/27 08:36:51;;;;;;;4.73;1.80;;;;;;;;;;5047354;28;20236;-72
2023/06/27 08:39:17;;;;;;;1.80;1.23;;;;;;;;;;5052188;28;20336;-73
2023/06/27 08:41:46;;;;;;;2.53;1.87;;;;;;;;;;5051466;28;20177;-73
2023/06/27 08:44:12;;;;;;;3.53;1.73;;;;;;;;;;5052251;28;20190;-73
2023/06/27 08:46:40;;;;;;;2.67;1.57;;;;;;;;;;5049683;28;20619;-73
2023/06/27 08:49:07;;;;;;;5.60;1.83;;;;;;;;;;5051016;28;20478;-73
2023/06/27 08:51:33;;;;;;;4.33;1.77;;;;;;;;;;5049707;28;20182;-73
2023/06/27 08:54:04;;;;;;;2.43;1.53;;;;;;;;;;5036994;28;20268;-73
2023/06/27 08:56:32;;;;;;;3.33;1.73;;;;;;;;;;5051935;28;20185;-73
2023/06/27 08:59:07;;;;;;;3.93;1.87;;;;;;;;;;5050896;28;20185;-73
2023/06/27 09:01:34;;;;;;;5.10;1.80;;;;;;;;;;5068781;28;20193;-72
2023/06/27 09:04:04;;;;;;;3.27;1.60;;;;;;;;;;5053928;28;20178;-73
2023/06/27 09:06:30;;;;;;;2.43;1.63;;;;;;;;;;5067847;28;20692;-73
2023/06/27 09:08:57;;;;;;;2.93;1.80;;;;;;;;;;5050155;28;20226;-72
2023/06/27 09:11:25;;;;;;;5.23;1.83;;;;;;;;;;5033724;28;20190;-73
2023/06/27 09:13:51;;;;;;;3.37;1.80;;;;;;;;;;5051298;28;20579;-73
2023/06/27 09:16:18;;;;;;;3.90;2.13;;;;;;;;;;5051719;28;20185;-73
2023/06/27 09:18:44;;;;;;;3.10;1.70;;;;;;;;;;5051318;28;20188;-73
2023/06/27 09:21:10;;;;;;;1.83;1.60;;;;;;;;;;5033927;28;20908;-73
2023/06/27 09:23:36;;;;;;;2.30;1.50;;;;;;;;;;5051686;28;20177;-73
2023/06/27 09:26:13;;;;;;;5.60;1.90;;;;;;;;;;5049799;28;20667;-72
2023/06/27 09:28:52;;;;;;;2.80;1.70;;;;;;;;;;5051306;28;20199;-73
2023/06/27 09:31:18;;;;;;;2.77;1.70;;;;;;;;;;5028357;28;20209;-73
2023/06/27 09:33:45;;;;;;;3.60;1.80;;;;;;;;;;5031442;28;20271;-73
2023/06/27 09:36:12;;;;;;;2.30;1.77;;;;;;;;;;5035454;28;20234;-73
2023/06/27 09:38:38;;;;;;;2.43;1.70;;;;;;;;;;5045023;28;20599;-72
2023/06/27 09:41:05;;;;;;;3.07;1.67;;;;;;;;;;5051609;28;20178;-73
2023/06/27 09:43:35;;;;;;;4.07;1.70;;;;;;;;;;5049295;28;20765;-73
2023/06/27 09:46:01;;;;;;;2.30;1.67;;;;;;;;;;5049911;28;20212;-73
2023/06/27 09:48:31;;;;;;;2.00;1.50;;;;;;;;;;5048555;28;20380;-73
2023/06/27 09:51:01;;;;;;;3.57;1.70;;;;;;;;;;5051432;28;20247;-73
2023/06/27 09:53:30;;;;;;;5.73;1.87;;;;;;;;;;5049557;28;20193;-73
2023/06/27 09:55:58;;;;;;;2.73;1.80;;;;;;;;;;5050933;28;20206;-73
2023/06/27 09:58:28;;;;;;;4.63;1.97;;;;;;;;;;5046003;28;20561;-73
2023/06/27 10:00:54;;;;;;;2.13;1.63;;;;;;;;;;5051595;28;20526;-73
2023/06/27 10:03:21;;;;;;;4.27;1.80;;;;;;;;;;5051182;28;20198;-73
2023/06/27 10:05:47;;;;;;;3.10;1.60;;;;;;;;;;5050824;28;20680;-73
2023/06/27 10:08:13;;;;;;;2.83;2.00;;;;;;;;;;5050594;28;20195;-73
2023/06/27 10:10:39;;;;;;;2.53;1.87;;;;;;;;;;5041143;28;20210;-73
2023/06/27 10:13:06;;;;;;;2.80;1.87;;;;;;;;;;5030987;28;20211;-73
2023/06/27 10:15:32;;;;;;;2.07;1.67;;;;;;;;;;5029722;28;20542;-73
2023/06/27 10:17:59;;;;;;;3.33;1.80;;;;;;;;;;5029350;28;20677;-73
2023/06/27 10:20:25;;;;;;;3.10;2.00;;;;;;;;;;5026145;28;20193;-73
2023/06/27 10:22:54;;;;;;;3.77;1.90;;;;;;;;;;5050928;28;20174;-73
2023/06/27 10:25:20;;;;;;;4.73;1.70;;;;;;;;;;5020312;28;20217;-73
2023/06/27 10:27:46;;;;;;;3.60;1.73;;;;;;;;;;5054185;28;20208;-73
2023/06/27 10:30:23;;;;;;;3.00;2.00;;;;;;;;;;5054847;28;20178;-73
2023/06/27 10:32:50;;;;;;;3.00;1.70;;;;;;;;;;5054666;28;20227;-73
2023/06/27 10:35:26;;;;;;;2.17;1.73;;;;;;;;;;5052862;28;20749;-73
2023/06/27 10:38:09;;;;;;;5.53;1.83;;;;;;;;;;5053930;28;20200;-73
2023/06/27 10:40:53;;;;;;;3.07;1.90;;;;;;;;;;5054782;28;20206;-73
2023/06/27 10:43:36;;;;;;;4.47;2.23;;;;;;;;;;5052192;28;20237;-73
2023/06/27 10:46:17;;;;;;;3.63;2.00;;;;;;;;;;5052136;28;20209;-73
2023/06/27 10:48:47;;;;;;;2.30;1.60;;;;;;;;;;5036524;28;20189;-73
2023/06/27 10:51:23;;;;;;;3.93;1.87;;;;;;;;;;5054473;28;20276;-73
2023/06/27 10:54:11;;;;;;;5.10;1.87;;;;;;;;;;5054316;28;20247;-73
2023/06/27 10:56:39;;;;;;;3.40;1.90;;;;;;;;;;5054183;28;20201;-73
2023/06/27 10:59:11;;;;;;;3.70;1.90;;;;;;;;;;5053985;28;20253;-74
2023/06/27 11:01:58;;;;;;;3.37;1.87;;;;;;;;;;5035607;28;20195;-73
2023/06/27 11:04:25;;;;;;;2.23;1.80;;;;;;;;;;5043599;28;20210;-73
2023/06/27 11:06:58;;;;;;;4.33;1.60;;;;;;;;;;5019211;28;20221;-73
2023/06/27 11:09:24;;;;;;;4.33;2.30;;;;;;;;;;5053911;28;20178;-73
2023/06/27 11:11:54;;;;;;;3.73;1.70;;;;;;;;;;5053443;28;20653;-73
2023/06/27 11:14:34;;;;;;;4.13;2.00;;;;;;;;;;5054456;28;20190;-73
2023/06/27 11:17:00;;;;;;;5.00;1.83;;;;;;;;;;5053297;28;20192;-73
2023/06/27 11:19:27;;;;;;;2.83;2.07;;;;;;;;;;5052619;28;20177;-73
2023/06/27 11:21:53;;;;;;;3.43;1.70;;;;;;;;;;5053866;28;20213;-73
2023/06/27 11:24:20;;;;;;;3.43;1.70;;;;;;;;;;5052638;28;20201;-73
2023/06/27 11:26:52;;;;;;;3.07;2.00;;;;;;;;;;5041653;28;20206;-73
2023/06/27 11:29:20;;;;;;;2.43;1.80;;;;;;;;;;5050831;28;20232;-73
2023/06/27 11:31:46;;;;;;;2.83;1.60;;;;;;;;;;5025281;28;20330;-73
2023/06/27 11:34:12;;;;;;;3.17;1.90;;;;;;;;;;5048828;28;20194;-72
2023/06/27 11:36:39;;;;;;;2.90;1.80;;;;;;;;;;5033596;28;20728;-73
2023/06/27 11:39:12;;;;;;;3.40;2.10;;;;;;;;;;5032837;28;20887;-73
2023/06/27 11:41:41;;;;;;;4.30;1.93;;;;;;;;;;5028076;28;20557;-73
2023/06/27 11:44:11;;;;;;;3.40;1.97;;;;;;;;;;5037171;28;20182;-73
2023/06/27 11:46:50;;;;;;;7.00;2.13;;;;;;;;;;5053042;28;20208;-73
2023/06/27 11:49:16;;;;;;;3.30;2.07;;;;;;;;;;5053054;28;20223;-73
2023/06/27 11:51:43;;;;;;;5.07;1.93;;;;;;;;;;5048144;28;20201;-73
2023/06/27 11:54:09;;;;;;;5.73;1.90;;;;;;;;;;5050035;28;20213;-76
2023/06/27 11:56:39;;;;;;;3.57;2.00;;;;;;;;;;5018517;28;20213;-75
2023/06/27 11:59:06;;;;;;;4.60;2.20;;;;;;;;;;5052323;28;20177;-75
2023/06/27 12:01:33;;;;;;;5.43;2.00;;;;;;;;;;5052222;28;20588;-73
2023/06/27 12:04:01;;;;;;;4.27;1.93;;;;;;;;;;5052720;28;20178;-76
2023/06/27 12:06:32;;;;;;;2.03;1.80;;;;;;;;;;5052055;28;20216;-75
2023/06/27 12:08:58;;;;;;;2.53;1.67;;;;;;;;;;5052809;28;20189;-75
2023/06/27 12:11:36;;;;;;;2.67;1.80;;;;;;;;;;5052817;28;20595;-73
2023/06/27 12:14:05;;;;;;;2.60;1.50;;;;;;;;;;5033215;28;20190;-77
2023/06/27 12:16:35;;;;;;;3.60;1.80;;;;;;;;;;5015477;28;20190;-73
2023/06/27 12:19:05;;;;;;;4.27;2.07;;;;;;;;;;5029654;28;20337;-75
2023/06/27 12:21:32;;;;;;;4.13;1.50;;;;;;;;;;5030191;28;20188;-74
2023/06/27 12:23:58;;;;;;;3.50;1.60;;;;;;;;;;5043223;28;20906;-74
2023/06/27 12:26:24;;;;;;;3.30;1.80;;;;;;;;;;5043677;28;20732;-75
2023/06/27 12:29:03;;;;;;;2.90;1.70;;;;;;;;;;5046822;28;20214;-75
2023/06/27 12:31:30;;;;;;;2.60;1.87;;;;;;;;;;5045214;28;20193;-75
2023/06/27 12:33:57;;;;;;;3.87;2.17;;;;;;;;;;5047706;28;20668;-75
2023/06/27 12:36:24;;;;;;;4.43;1.70;;;;;;;;;;5042260;28;20572;-75
2023/06/27 12:38:50;;;;;;;3.97;1.73;;;;;;;;;;5046228;28;20182;-75
2023/06/27 12:41:21;;;;;;;2.07;1.77;;;;;;;;;;5048445;28;20185;-75
2023/06/27 12:43:47;;;;;;;3.03;1.60;;;;;;;;;;5027241;28;20610;-75
2023/06/27 12:46:14;;;;;;;3.10;1.80;;;;;;;;;;5044232;28;20219;-77
2023/06/27 12:48:40;;;;;;;2.67;1.60;;;;;;;;;;5045648;28;20364;-76
2023/06/27 12:51:07;;;;;;;2.07;1.67;;;;;;;;;;5047761;28;20197;-75
2023/06/27 12:53:33;;;;;;;2.30;1.70;;;;;;;;;;5046343;28;20800;-74
2023/06/27 12:56:02;;;;;;;2.03;1.60;;;;;;;;;;5046964;28;21366;-75
2023/06/27 12:58:28;;;;;;;1.83;1.60;;;;;;;;;;5008361;28;20517;-74
2023/06/27 13:00:56;;;;;;;1.67;1.57;;;;;;;;;;5048014;28;20175;-74
2023/06/27 13:03:23;;;;;;;2.40;1.50;;;;;;;;;;5044332;28;20207;-73
2023/06/27 13:05:50;;;;;;;2.80;1.90;;;;;;;;;;5046507;28;20212;-74
2023/06/27 13:08:17;;;;;;;2.00;1.40;;;;;;;;;;5043346;28;20181;-74
2023/06/27 13:10:44;;;;;;;2.53;1.60;;;;;;;;;;5044130;28;20269;-74
2023/06/27 13:13:10;;;;;;;2.37;1.70;;;;;;;;;;5045752;28;20204;-74
2023/06/27 13:15:36;;;;;;;3.10;1.70;;;;;;;;;;5025661;28;20850;-74
2023/06/27 13:18:02;;;;;;;2.57;1.80;;;;;;;;;;5045724;28;20176;-74
2023/06/27 13:20:28;;;;;;;1.63;1.53;;;;;;;;;;5026413;28;20199;-74
2023/06/27 13:22:55;;;;;;;2.03;1.70;;;;;;;;;;5040215;28;20202;-74
2023/06/27 13:25:22;;;;;;;3.57;1.60;;;;;;;;;;5048008;28;20212;-78
2023/06/27 13:27:49;;;;;;;2.40;1.73;;;;;;;;;;5046582;28;20281;-77
2023/06/27 13:30:15;;;;;;;2.43;1.60;;;;;;;;;;5046615;28;20187;-75
2023/06/27 13:32:47;;;;;;;3.30;1.70;;;;;;;;;;5047134;28;20234;-77
2023/06/27 13:35:13;;;;;;;3.93;2.07;;;;;;;;;;5017924;28;20667;-78
2023/06/27 13:37:39;;;;;;;2.77;1.60;;;;;;;;;;5038483;28;20259;-78
2023/06/27 13:40:06;;;;;;;3.03;1.90;;;;;;;;;;5024244;28;20293;-78
2023/06/27 13:42:32;;;;;;;2.80;1.80;;;;;;;;;;5041099;28;20638;-79
2023/06/27 13:44:59;;;;;;;2.23;1.70;;;;;;;;;;5052509;28;20243;-79
2023/06/27 13:47:26;;;;;;;1.93;1.60;;;;;;;;;;5045276;28;20231;-78
2023/06/27 13:49:52;;;;;;;3.13;1.73;;;;;;;;;;5033293;28;20193;-79
2023/06/27 13:52:18;;;;;;;2.47;1.80;;;;;;;;;;5034691;28;20223;-79
2023/06/27 13:54:45;;;;;;;3.37;1.70;;;;;;;;;;5013055;28;20239;-80
2023/06/27 13:57:13;;;;;;;2.63;1.70;;;;;;;;;;5031996;28;20222;-78
2023/06/27 13:59:39;;;;;;;2.53;1.83;;;;;;;;;;5039691;28;20203;-78
2023/06/27 14:02:05;;;;;;;1.80;1.70;;;;;;;;;;5045220;28;20198;-78
2023/06/27 14:04:32;;;;;;;2.63;1.53;;;;;;;;;;5030339;28;20208;-79
2023/06/27 14:06:59;;;;;;;3.27;1.90;;;;;;;;;;5010877;28;20206;-79
2023/06/27 14:09:25;;;;;;;2.57;1.70;;;;;;;;;;5028571;28;20289;-78
2023/06/27 14:11:51;;;;;;;4.60;1.70;;;;;;;;;;5030203;28;20189;-79
2023/06/27 14:14:19;;;;;;;3.57;1.87;;;;;;;;;;5044012;28;20215;-78
2023/06/27 14:16:46;;;;;;;3.30;1.67;;;;;;;;;;5045525;28;20198;-78
2023/06/27 14:19:13;;;;;;;3.50;1.60;;;;;;;;;;5027281;28;20183;-77
2023/06/27 14:21:39;;;;;;;2.83;1.80;;;;;;;;;;5044062;28;20187;-78
2023/06/27 14:24:06;;;;;;;4.20;1.70;;;;;;;;;;5024475;28;20196;-78
2023/06/27 14:26:34;;;;;;;2.07;1.60;;;;;;;;;;5040991;28;20241;-76
2023/06/27 14:29:00;;;;;;;1.87;1.50;;;;;;;;;;5039143;28;20214;-77
2023/06/27 14:31:26;;;;;;;2.47;1.80;;;;;;;;;;5023056;28;20177;-76
2023/06/27 14:33:53;;;;;;;2.73;1.80;;;;;;;;;;5026213;28;20189;-76
2023/06/27 14:36:19;;;;;;;2.07;1.67;;;;;;;;;;5029487;28;20240;-76
2023/06/27 14:38:45;;;;;;;4.07;1.80;;;;;;;;;;5041455;28;20189;-78
2023/06/27 14:41:11;;;;;;;3.37;2.00;;;;;;;;;;5022003;28;20333;-78
2023/06/27 14:43:37;;;;;;;3.60;1.80;;;;;;;;;;5023185;28;20199;-77